Pasco, Washington
Current Conditions -  °F | °C
As of 7:53 PM on Friday 24 Oct 2014 (Local Time) from KPSC Reporting Station
Overcast Overcast  
Wind Chill: 50°   Ceiling: 9500
Heat Index: 50°   Visibility: 10mi
Dew Point: 48°   Wind: 10mph
Humidity: 93%   Direction: 330°NNW
Pressure: 29.94"   Gusts: NA
Location:  46.24°N, 119.09°W
Report Text: KPSC 250253Z 33009KT 10SM SCT080 OVC095 10/09 A2994 RMK AO2 SLP140 60005 T01000089 58021
Loading
Personal Weather Stations






























Interactive Weather Map
Tropical Storm Tracking
New forecast layout! Learn more

10-Day Weather Forecast

Advertisements
Track Severe Weather on mobile